createdAt,value
2023-01-08T00:01:32.645Z,31.07
2023-01-08T00:04:02.252Z,31.65
2023-01-08T00:06:32.198Z,30.90
2023-01-08T00:09:02.938Z,29.05
2023-01-08T00:11:32.362Z,30.13
2023-01-08T00:14:01.721Z,29.13
2023-01-08T00:16:31.017Z,29.60
2023-01-08T00:19:00.293Z,30.55
2023-01-08T00:21:29.633Z,29.45
2023-01-08T00:23:58.927Z,28.85
2023-01-08T00:26:28.178Z,27.93
2023-01-08T00:28:57.723Z,30.27
2023-01-08T00:31:27.082Z,28.85
2023-01-08T00:33:56.463Z,29.90
2023-01-08T00:36:25.700Z,29.80
2023-01-08T00:38:55.120Z,31.00
2023-01-08T00:41:24.532Z,30.60
2023-01-08T00:43:53.939Z,29.05
2023-01-08T00:46:23.274Z,31.05
2023-01-08T00:48:52.738Z,29.00
2023-01-08T00:51:22.065Z,29.03
2023-01-08T00:53:51.414Z,29.10
2023-01-08T00:56:20.730Z,28.40
2023-01-08T00:58:50.079Z,28.65
2023-01-08T01:01:20.138Z,29.45
2023-01-08T01:03:49.541Z,29.50
2023-01-08T01:06:18.822Z,27.60
2023-01-08T01:08:48.388Z,27.13
2023-01-08T01:11:19.500Z,27.00
2023-01-08T01:13:48.762Z,27.95
2023-01-08T01:16:18.381Z,27.95
2023-01-08T01:18:47.840Z,25.55
2023-01-08T01:21:19.399Z,26.37
2023-01-08T01:23:48.662Z,26.15
2023-01-08T01:26:18.719Z,26.35
2023-01-08T01:28:48.500Z,24.83
2023-01-08T01:31:18.236Z,26.65
2023-01-08T01:33:48.466Z,26.27
2023-01-08T01:36:18.719Z,25.60
2023-01-08T01:38:49.059Z,27.75
2023-01-08T01:41:23.372Z,27.30
2023-01-08T01:43:53.041Z,28.55
2023-01-08T01:46:31.773Z,26.60
2023-01-08T01:49:03.129Z,27.10
2023-01-08T01:51:33.098Z,27.00
2023-01-08T01:54:03.743Z,25.80
2023-01-08T01:56:33.934Z,26.65
2023-01-08T01:59:03.946Z,26.60
2023-01-08T02:01:34.054Z,26.20
2023-01-08T02:04:05.795Z,26.30
2023-01-08T02:06:37.297Z,26.63
2023-01-08T02:09:09.520Z,26.43
2023-01-08T02:11:42.138Z,26.57
2023-01-08T02:14:13.589Z,26.50
2023-01-08T02:16:46.225Z,27.67
2023-01-08T02:19:21.932Z,25.30
2023-01-08T02:21:56.308Z,24.70
2023-01-08T02:24:29.916Z,25.97
2023-01-08T02:26:59.542Z,25.25
2023-01-08T02:29:29.269Z,24.40
2023-01-08T02:31:58.594Z,25.50
2023-01-08T02:34:27.954Z,25.87
2023-01-08T02:36:57.200Z,24.65
2023-01-08T02:39:33.742Z,24.20
2023-01-08T02:42:09.210Z,24.40
2023-01-08T02:44:45.657Z,25.27
2023-01-08T02:47:19.837Z,23.95
2023-01-08T02:49:50.890Z,24.65
2023-01-08T02:52:20.707Z,23.50
2023-01-08T02:54:50.466Z,24.60
2023-01-08T02:57:20.103Z,22.45
2023-01-08T02:59:50.312Z,21.90
2023-01-08T03:02:19.748Z,23.93
2023-01-08T03:04:53.349Z,23.05
2023-01-08T03:07:22.573Z,23.05
2023-01-08T03:09:52.423Z,24.40
2023-01-08T03:12:24.754Z,23.20
2023-01-08T03:17:24.703Z,24.20
2023-01-08T03:19:55.797Z,24.00
2023-01-08T03:22:25.843Z,22.45
2023-01-08T03:24:56.738Z,22.93
2023-01-08T03:27:28.681Z,23.05
2023-01-08T03:29:58.949Z,23.18
2023-01-08T03:32:29.456Z,22.70
2023-01-08T03:35:00.076Z,22.95
2023-01-08T03:37:32.976Z,22.85
2023-01-08T03:40:05.311Z,22.30
2023-01-08T03:42:34.617Z,21.42
2023-01-08T03:45:04.314Z,22.13
2023-01-08T03:47:34.649Z,21.70
2023-01-08T03:50:06.573Z,22.35
2023-01-08T03:52:35.965Z,22.40
2023-01-08T03:55:05.953Z,24.20
2023-01-08T03:57:36.061Z,30.45
2023-01-08T04:00:06.691Z,29.30
2023-01-08T04:02:36.224Z,29.67
2023-01-08T04:05:06.703Z,26.65
2023-01-08T04:07:36.001Z,26.60
2023-01-08T04:10:05.881Z,26.10
2023-01-08T04:12:35.234Z,25.55
2023-01-08T04:15:05.194Z,23.55
2023-01-08T04:17:34.680Z,23.90
2023-01-08T04:20:04.340Z,24.20
2023-01-08T04:22:33.599Z,23.97
2023-01-08T04:25:03.083Z,23.95
2023-01-08T04:27:32.633Z,22.30
2023-01-08T04:30:01.959Z,23.87
2023-01-08T04:32:31.371Z,22.23
2023-01-08T04:35:00.609Z,24.45
2023-01-08T04:37:29.855Z,22.95
2023-01-08T04:39:59.133Z,24.20
2023-01-08T04:42:28.565Z,24.63
2023-01-08T04:44:57.974Z,25.40
2023-01-08T04:47:27.306Z,24.50
2023-01-08T04:49:56.523Z,25.17
2023-01-08T04:52:27.822Z,24.50
2023-01-08T04:54:57.159Z,24.90
2023-01-08T04:57:26.517Z,23.65
2023-01-08T04:59:55.921Z,22.97
2023-01-08T05:02:25.444Z,24.05
2023-01-08T05:04:54.842Z,22.00
2023-01-08T05:07:24.397Z,22.95
2023-01-08T05:09:53.826Z,22.00
2023-01-08T05:12:23.263Z,23.25
2023-01-08T05:14:52.523Z,22.80
2023-01-08T05:17:21.939Z,22.63
2023-01-08T05:19:51.141Z,23.33
2023-01-08T05:22:20.433Z,21.03
2023-01-08T05:24:49.685Z,22.07
2023-01-08T05:27:19.047Z,21.87
2023-01-08T05:29:48.932Z,22.55
2023-01-08T05:32:18.993Z,22.93
2023-01-08T05:34:48.540Z,21.90
2023-01-08T05:37:17.803Z,22.30
2023-01-08T05:39:47.181Z,20.93
2023-01-08T05:42:16.439Z,22.00
2023-01-08T05:44:45.817Z,22.45
2023-01-08T05:47:15.163Z,22.80
2023-01-08T05:49:44.570Z,22.03
2023-01-08T05:52:13.948Z,21.35
2023-01-08T05:54:43.162Z,23.25
2023-01-08T05:57:12.595Z,26.35
2023-01-08T05:59:41.852Z,24.25
2023-01-08T06:02:11.279Z,25.13
2023-01-08T06:04:40.655Z,25.45
2023-01-08T06:07:09.949Z,23.87
2023-01-08T06:09:39.260Z,23.87
2023-01-08T06:12:08.783Z,24.15
2023-01-08T06:14:38.149Z,23.60
2023-01-08T06:17:07.500Z,25.03
2023-01-08T06:19:36.821Z,23.90
2023-01-08T06:22:06.499Z,23.43
2023-01-08T06:24:35.841Z,23.95
2023-01-08T06:27:05.256Z,24.67
2023-01-08T06:29:34.766Z,25.50
2023-01-08T06:32:04.240Z,25.35
2023-01-08T06:34:33.459Z,24.43
2023-01-08T06:37:02.737Z,24.30
2023-01-08T06:39:32.139Z,23.80
2023-01-08T06:42:01.676Z,24.90
2023-01-08T06:44:31.392Z,26.10
2023-01-08T06:47:00.786Z,27.25
2023-01-08T06:49:30.205Z,26.80
2023-01-08T06:51:59.454Z,26.60
2023-01-08T06:54:28.888Z,28.05
2023-01-08T06:56:58.259Z,28.75
2023-01-08T06:59:27.669Z,28.20
2023-01-08T07:01:57.162Z,27.40
2023-01-08T07:04:26.747Z,28.40
2023-01-08T07:06:56.180Z,29.00
2023-01-08T07:09:25.421Z,28.70
2023-01-08T07:11:55.101Z,29.90
2023-01-08T07:14:24.547Z,31.03
2023-01-08T07:16:54.005Z,31.10
2023-01-08T07:19:24.289Z,33.37
2023-01-08T07:21:53.679Z,33.83
2023-01-08T07:24:22.942Z,32.00
2023-01-08T07:26:52.365Z,35.77
2023-01-08T07:29:21.745Z,33.03
2023-01-08T07:31:51.120Z,31.03
2023-01-08T07:34:20.556Z,31.37
2023-01-08T07:36:50.017Z,32.25
2023-01-08T07:39:19.403Z,30.60
2023-01-08T07:41:48.899Z,31.07
2023-01-08T07:44:19.539Z,30.17
2023-01-08T07:46:49.256Z,31.60
2023-01-08T07:49:18.548Z,29.77
2023-01-08T07:51:49.711Z,29.67
2023-01-08T07:54:19.070Z,31.40
2023-01-08T07:56:49.402Z,29.10
2023-01-08T07:59:18.675Z,31.35
2023-01-08T08:01:48.353Z,29.37
2023-01-08T08:04:18.726Z,29.55
2023-01-08T08:06:48.017Z,29.30
2023-01-08T08:09:17.433Z,30.30
2023-01-08T08:11:46.885Z,28.05
2023-01-08T08:14:16.224Z,30.05
2023-01-08T08:16:45.676Z,29.55
2023-01-08T08:19:15.533Z,30.10
2023-01-08T08:21:44.921Z,30.15
2023-01-08T08:24:15.655Z,28.45
2023-01-08T08:26:44.925Z,30.20
2023-01-08T08:29:14.639Z,27.90
2023-01-08T08:31:44.031Z,30.30
2023-01-08T08:34:13.297Z,29.25
2023-01-08T08:36:42.576Z,28.87
2023-01-08T08:39:11.969Z,29.10
2023-01-08T08:41:41.815Z,28.90
2023-01-08T08:44:11.161Z,30.00
2023-01-08T08:46:40.743Z,28.80
2023-01-08T08:49:10.141Z,29.03
2023-01-08T08:51:40.341Z,26.00
2023-01-08T08:54:10.598Z,26.70
2023-01-08T08:56:40.170Z,26.75
2023-01-08T08:59:12.516Z,26.97
2023-01-08T09:01:42.022Z,27.15
2023-01-08T09:04:11.756Z,29.70
2023-01-08T09:06:41.234Z,28.35
2023-01-08T09:09:10.720Z,28.55
2023-01-08T09:11:40.951Z,27.20
2023-01-08T09:14:10.813Z,28.33
2023-01-08T09:16:40.901Z,27.03
2023-01-08T09:19:10.894Z,26.33
2023-01-08T09:21:40.260Z,26.00
2023-01-08T09:24:09.649Z,25.53
2023-01-08T09:26:39.919Z,26.90
2023-01-08T09:29:09.822Z,24.15
2023-01-08T09:31:39.795Z,26.60
2023-01-08T09:34:09.126Z,26.37
2023-01-08T09:36:38.561Z,25.40
2023-01-08T09:39:08.251Z,27.65
2023-01-08T09:41:39.291Z,26.73
2023-01-08T09:44:13.801Z,27.93
2023-01-08T09:46:43.825Z,27.07
2023-01-08T09:49:16.902Z,26.00
2023-01-08T09:51:46.568Z,26.85
2023-01-08T09:54:17.109Z,27.40
2023-01-08T09:56:47.101Z,26.73
2023-01-08T09:59:17.697Z,26.30
2023-01-08T10:01:47.930Z,25.07
2023-01-08T10:04:18.215Z,25.87
2023-01-08T10:06:51.750Z,27.37
2023-01-08T10:09:24.062Z,26.37
2023-01-08T10:11:54.354Z,27.35
2023-01-08T10:14:25.120Z,25.50
2023-01-08T10:16:57.489Z,26.40
2023-01-08T10:19:27.053Z,25.73
2023-01-08T10:21:57.016Z,25.47
2023-01-08T10:24:33.554Z,25.80
2023-01-08T10:27:07.054Z,24.80
2023-01-08T10:29:39.217Z,25.70
2023-01-08T10:32:11.072Z,25.20
2023-01-08T10:34:42.855Z,24.15
2023-01-08T10:37:17.848Z,24.63
2023-01-08T10:39:48.318Z,24.97
2023-01-08T10:42:19.133Z,23.73
2023-01-08T10:44:55.455Z,23.87
2023-01-08T10:47:25.585Z,24.53
2023-01-08T10:49:55.594Z,25.10
2023-01-08T10:52:26.507Z,23.63
2023-01-08T10:54:56.212Z,23.57
2023-01-08T10:57:27.182Z,25.25
2023-01-08T10:59:57.338Z,24.65
2023-01-08T11:02:32.126Z,22.23
2023-01-08T11:05:01.895Z,23.50
2023-01-08T11:07:34.724Z,24.07
2023-01-08T11:10:05.056Z,23.53
2023-01-08T11:12:39.422Z,24.43
2023-01-08T11:15:32.770Z,23.47
2023-01-08T11:18:12.858Z,22.40
2023-01-08T11:20:42.206Z,23.20
2023-01-08T11:23:16.683Z,23.75
2023-01-08T11:25:49.377Z,23.92
2023-01-08T11:28:23.848Z,23.32
2023-01-08T11:30:54.959Z,21.40
2023-01-08T11:33:26.708Z,24.20
2023-01-08T11:35:59.078Z,22.55
2023-01-08T11:38:28.319Z,23.55
2023-01-08T11:41:05.327Z,24.35
2023-01-08T11:43:39.741Z,24.45
2023-01-08T11:46:15.333Z,23.35
2023-01-08T11:49:14.452Z,24.02
2023-01-08T11:51:51.050Z,23.73
2023-01-08T11:54:26.973Z,22.70
2023-01-08T11:57:08.799Z,22.25
2023-01-08T11:59:46.930Z,22.27
2023-01-08T12:02:20.428Z,24.20
2023-01-08T12:04:55.850Z,21.77
2023-01-08T12:07:25.728Z,21.25
2023-01-08T12:09:59.048Z,22.40
2023-01-08T12:12:34.078Z,20.60
2023-01-08T12:15:09.237Z,20.80
2023-01-08T12:17:53.484Z,23.40
2023-01-08T12:20:28.990Z,22.35
2023-01-08T12:23:05.685Z,23.98
2023-01-08T12:25:42.068Z,23.20
2023-01-08T12:28:17.600Z,22.17
2023-01-08T12:30:59.186Z,21.62
2023-01-08T12:33:33.022Z,23.70
2023-01-08T12:36:05.565Z,22.32
2023-01-08T12:38:36.740Z,23.65
2023-01-08T12:41:07.121Z,22.65
2023-01-08T12:43:39.860Z,23.12
2023-01-08T12:46:12.452Z,22.13
2023-01-08T12:48:42.034Z,21.37
2023-01-08T12:51:17.627Z,21.95
2023-01-08T12:53:53.414Z,22.13
2023-01-08T12:56:26.983Z,22.80
2023-01-08T12:59:06.166Z,22.50
2023-01-08T13:01:40.608Z,21.87
2023-01-08T13:04:12.410Z,21.77
2023-01-08T13:06:52.843Z,20.08
2023-01-08T13:09:24.136Z,21.87
2023-01-08T13:11:55.103Z,24.87
2023-01-08T13:14:26.763Z,19.77
2023-01-08T13:19:26.285Z,21.15
2023-01-08T13:21:56.478Z,21.52
2023-01-08T13:24:29.154Z,21.70
2023-01-08T13:27:10.265Z,20.50
2023-01-08T13:29:40.740Z,21.73
2023-01-08T13:32:24.130Z,21.77
2023-01-08T13:35:02.024Z,22.35
2023-01-08T13:37:32.108Z,22.50
2023-01-08T13:40:06.371Z,22.80
2023-01-08T13:42:35.800Z,22.85
2023-01-08T13:45:05.902Z,22.85
2023-01-08T13:47:36.080Z,22.50
2023-01-08T13:50:14.039Z,21.97
2023-01-08T13:52:45.289Z,22.27
2023-01-08T13:55:16.656Z,21.35
2023-01-08T13:57:48.252Z,22.87
2023-01-08T14:00:24.178Z,21.12
2023-01-08T14:02:54.682Z,21.02
2023-01-08T14:05:27.316Z,20.52
2023-01-08T14:07:57.229Z,20.55
2023-01-08T14:10:26.934Z,21.10
2023-01-08T14:13:01.371Z,21.55
2023-01-08T14:15:30.834Z,22.20
2023-01-08T14:18:01.116Z,23.73
2023-01-08T14:20:32.264Z,21.50
2023-01-08T14:23:02.365Z,21.02
2023-01-08T14:25:32.559Z,22.22
2023-01-08T14:28:03.130Z,22.62
2023-01-08T14:30:32.875Z,22.40
2023-01-08T14:33:02.580Z,22.35
2023-01-08T14:35:33.602Z,24.43
2023-01-08T14:38:05.069Z,24.85
2023-01-08T14:40:38.081Z,22.48
2023-01-08T14:43:09.459Z,23.95
2023-01-08T14:45:40.119Z,25.00
2023-01-08T14:48:12.009Z,23.57
2023-01-08T14:50:42.401Z,26.52
2023-01-08T14:53:24.110Z,24.70
2023-01-08T14:55:55.304Z,25.80
2023-01-08T14:58:26.185Z,23.63
2023-01-08T15:00:56.941Z,24.60
2023-01-08T15:03:31.198Z,30.20
2023-01-08T15:06:01.853Z,39.60
2023-01-08T15:08:35.843Z,66.25
2023-01-08T15:11:06.376Z,57.98
2023-01-08T15:13:37.884Z,47.53
2023-01-08T15:16:09.523Z,37.13
2023-01-08T15:18:43.597Z,37.35
2023-01-08T15:21:17.344Z,40.43
2023-01-08T15:23:48.745Z,39.35
2023-01-08T15:26:18.275Z,31.93
2023-01-08T15:28:51.214Z,31.13
2023-01-08T15:31:24.289Z,31.80
2023-01-08T15:33:53.992Z,30.87
2023-01-08T15:36:23.693Z,29.60
2023-01-08T15:38:53.112Z,28.25
2023-01-08T15:41:47.145Z,26.43
2023-01-08T15:44:16.790Z,26.02
2023-01-08T15:46:46.145Z,25.50
2023-01-08T15:49:16.147Z,26.25
2023-01-08T15:51:46.867Z,23.87
2023-01-08T15:54:16.243Z,24.32
2023-01-08T15:56:45.703Z,23.93
2023-01-08T15:59:15.001Z,23.50
2023-01-08T16:01:44.443Z,24.23
2023-01-08T16:04:13.864Z,23.30
2023-01-08T16:06:43.350Z,24.13
2023-01-08T16:09:13.094Z,24.80
2023-01-08T16:11:42.996Z,23.47
2023-01-08T16:14:13.477Z,24.33
2023-01-08T16:16:43.105Z,25.40
2023-01-08T16:19:13.076Z,25.43
2023-01-08T16:21:46.321Z,25.23
2023-01-08T16:24:15.908Z,24.55
2023-01-08T16:26:45.277Z,24.03
2023-01-08T16:29:14.559Z,22.23
2023-01-08T16:31:45.339Z,24.15
2023-01-08T16:34:15.958Z,23.45
2023-01-08T16:36:45.303Z,25.13
2023-01-08T16:39:14.851Z,23.35
2023-01-08T16:41:44.926Z,24.17
2023-01-08T16:44:17.734Z,25.57
2023-01-08T16:46:47.127Z,25.17
2023-01-08T16:49:16.579Z,24.83
2023-01-08T16:51:45.937Z,23.55
2023-01-08T16:54:16.044Z,24.75
2023-01-08T16:56:45.672Z,25.83
2023-01-08T16:59:22.757Z,25.40
2023-01-08T17:01:52.957Z,26.00
2023-01-08T17:04:22.392Z,26.60
2023-01-08T17:06:51.754Z,28.50
2023-01-08T17:09:21.416Z,27.95
2023-01-08T17:14:54.737Z,29.97
2023-01-08T17:17:41.786Z,29.45
2023-01-08T17:20:12.540Z,30.40
2023-01-08T17:22:46.301Z,30.80
2023-01-08T17:25:16.314Z,32.13
2023-01-08T17:27:47.980Z,33.83
2023-01-08T17:30:18.695Z,31.10
2023-01-08T17:32:48.597Z,30.80
2023-01-08T17:35:18.690Z,32.03
2023-01-08T17:37:48.148Z,31.60
2023-01-08T17:40:17.846Z,31.20
2023-01-08T17:42:47.741Z,29.27
2023-01-08T17:45:17.289Z,30.37
2023-01-08T17:47:46.863Z,26.30
2023-01-08T17:50:17.737Z,27.20
2023-01-08T17:52:50.668Z,24.95
2023-01-08T17:55:20.226Z,24.37
2023-01-08T17:57:49.653Z,24.63
2023-01-08T18:00:20.017Z,25.10
2023-01-08T18:02:49.784Z,25.47
2023-01-08T18:05:21.482Z,24.07
2023-01-08T18:07:51.492Z,25.13
2023-01-08T18:10:20.901Z,24.90
2023-01-08T18:12:50.329Z,23.65
2023-01-08T18:15:20.162Z,23.00
2023-01-08T18:17:49.870Z,22.83
2023-01-08T18:20:19.908Z,23.30
2023-01-08T18:22:50.650Z,24.00
2023-01-08T18:25:20.327Z,23.75
2023-01-08T18:27:49.922Z,22.80
2023-01-08T18:30:19.801Z,22.35
2023-01-08T19:00:10.722Z,24.50
